Time;durP1;ratioP1;P1;durP2;ratioP2;P2;SDS_P1;SDS_P2;PMS_P1;PMS_P2;Temp;Humidity;BMP_temperature;BMP_pressure;BME280_temperature;BME280_humidity;BME280_pressure;Samples;Min_cycle;Max_cycle;Signal;HPM_P1;HPM_P2
2023/05/02 00:00:48;;;;;;;;;;;10.40;99.90;;;;;;5027168;28;19978;-69
2023/05/02 00:03:15;;;;;;;;;;;10.30;99.90;;;;;;5036518;28;19925;-69
2023/05/02 00:05:42;;;;;;;;;;;10.80;99.90;;;;;;5040241;28;20371;-69
2023/05/02 00:08:09;;;;;;;;;;;10.20;99.90;;;;;;5052784;28;19925;-68
2023/05/02 00:10:37;;;;;;;;;;;10.20;99.90;;;;;;5035693;28;19925;-69
2023/05/02 00:13:04;;;;;;;;;;;10.20;99.90;;;;;;5036250;28;19940;-68
2023/05/02 00:15:31;;;;;;;;;;;10.10;99.90;;;;;;5046385;28;19964;-68
2023/05/02 00:17:58;;;;;;;;;;;10.10;99.90;;;;;;5021143;28;19929;-68
2023/05/02 00:20:25;;;;;;;;;;;10.00;99.90;;;;;;5028704;28;19925;-68
2023/05/02 00:22:51;;;;;;;;;;;10.00;99.90;;;;;;5024535;28;20385;-68
2023/05/02 00:25:18;;;;;;;;;;;9.90;99.90;;;;;;5023512;28;19928;-67
2023/05/02 00:27:49;;;;;;;;;;;9.90;99.90;;;;;;5023938;28;19929;-68
2023/05/02 00:30:16;;;;;;;;;;;9.90;99.90;;;;;;5022282;28;19925;-68
2023/05/02 00:32:43;;;;;;;;;;;10.00;99.90;;;;;;5025803;28;19925;-68
2023/05/02 00:35:10;;;;;;;;;;;10.00;99.90;;;;;;5020788;28;19925;-69
2023/05/02 00:37:37;;;;;;;;;;;10.00;99.90;;;;;;5034760;28;19932;-68
2023/05/02 00:40:05;;;;;;;;;;;10.00;99.90;;;;;;5016754;28;19925;-68
2023/05/02 00:42:34;;;;;;;;;;;10.30;99.90;;;;;;5018309;28;20347;-69
2023/05/02 00:45:03;;;;;;;;;;;10.00;99.90;;;;;;5023942;28;20003;-68
2023/05/02 00:47:30;;;;;;;;;;;9.90;99.90;;;;;;5026442;28;19925;-69
2023/05/02 00:49:59;;;;;;;;;;;9.90;99.90;;;;;;5020941;28;19929;-68
2023/05/02 00:52:26;;;;;;;;;;;;;;;;;;5044836;28;19924;-68
2023/05/02 00:54:53;;;;;;;;;;;9.90;99.90;;;;;;5020264;28;19929;-68
2023/05/02 00:57:20;;;;;;;;;;;9.50;99.90;;;;;;5021620;28;19975;-68
2023/05/02 00:59:47;;;;;;;;;;;10.00;99.90;;;;;;5028362;28;19925;-68
2023/05/02 01:02:22;;;;;;;;;;;10.00;99.90;;;;;;5028024;28;20339;-68
2023/05/02 01:04:54;;;;;;;;;;;10.10;99.90;;;;;;5043276;28;19924;-68
2023/05/02 01:07:26;;;;;;;;;;;10.10;99.90;;;;;;5021327;28;20407;-68
2023/05/02 01:10:01;;;;;;;;;;;10.10;99.90;;;;;;5020502;28;20011;-68
2023/05/02 01:12:31;;;;;;;;;;;10.10;99.90;;;;;;5020490;28;20025;-68
2023/05/02 01:14:59;;;;;;;;;;;10.10;99.90;;;;;;5018632;28;19936;-67
2023/05/02 01:17:28;;;;;;;;;;;10.10;99.90;;;;;;5018130;28;19925;-68
2023/05/02 01:19:57;;;;;;;;;;;10.10;99.90;;;;;;5037110;28;20019;-68
2023/05/02 01:22:24;;;;;;;;;;;10.20;99.90;;;;;;5029024;28;19924;-68
2023/05/02 01:24:54;;;;;;;;;;;10.20;99.90;;;;;;5031149;28;19925;-68
2023/05/02 01:27:24;;;;;;;;;;;10.20;99.90;;;;;;5026983;28;19932;-67
2023/05/02 01:29:53;;;;;;;;;;;10.20;99.90;;;;;;5022450;28;19932;-68
2023/05/02 01:32:22;;;;;;;;;;;10.20;99.90;;;;;;5028443;28;19929;-67
2023/05/02 01:34:49;;;;;;;;;;;10.20;99.90;;;;;;5020203;28;19990;-68
2023/05/02 01:37:18;;;;;;;;;;;10.20;99.90;;;;;;5028214;28;19925;-68
2023/05/02 01:39:45;;;;;;;;;;;10.20;99.90;;;;;;5021696;28;20023;-68
2023/05/02 01:42:13;;;;;;;;;;;10.20;99.90;;;;;;5019448;28;19929;-68
2023/05/02 01:44:41;;;;;;;;;;;10.20;99.90;;;;;;5016855;28;19925;-68
2023/05/02 01:47:10;;;;;;;;;;;10.30;99.90;;;;;;5024113;28;19929;-67
2023/05/02 01:49:37;;;;;;;;;;;10.30;99.90;;;;;;5028319;28;19924;-68
2023/05/02 01:52:07;;;;;;;;;;;10.20;99.90;;;;;;5024128;28;19933;-68
2023/05/02 01:54:35;;;;;;;;;;;10.20;99.90;;;;;;5027789;28;19925;-68
2023/05/02 01:57:05;;;;;;;;;;;10.20;99.90;;;;;;5030855;28;20299;-68
2023/05/02 01:59:33;;;;;;;;;;;10.20;99.90;;;;;;5021679;28;19933;-68
2023/05/02 02:02:01;;;;;;;;;;;10.20;99.90;;;;;;5032179;28;19933;-68
2023/05/02 02:04:30;;;;;;;;;;;10.20;99.90;;;;;;5017976;28;19968;-68
2023/05/02 02:06:58;;;;;;;;;;;10.20;99.90;;;;;;5032407;28;19928;-68
2023/05/02 02:09:25;;;;;;;;;;;10.20;99.90;;;;;;5021247;28;19925;-68
2023/05/02 02:11:53;;;;;;;;;;;10.20;99.90;;;;;;5020834;28;19932;-68
2023/05/02 02:14:21;;;;;;;;;;;10.20;99.90;;;;;;5027631;28;20347;-68
2023/05/02 02:16:51;;;;;;;;;;;10.20;99.90;;;;;;5027882;28;20032;-68
2023/05/02 02:19:18;;;;;;;;;;;10.20;99.90;;;;;;5022119;28;19925;-68
2023/05/02 02:21:48;;;;;;;;;;;10.20;99.90;;;;;;5018976;28;20474;-68
2023/05/02 02:24:16;;;;;;;;;;;10.30;99.90;;;;;;5020171;28;19933;-68
2023/05/02 02:26:43;;;;;;;;;;;10.20;99.90;;;;;;5026401;28;19928;-68
2023/05/02 02:29:10;;;;;;;;;;;;;;;;;;5020357;28;19929;-68
2023/05/02 02:31:38;;;;;;;;;;;10.30;99.90;;;;;;5024710;28;19928;-69
2023/05/02 02:34:05;;;;;;;;;;;10.30;99.90;;;;;;5021158;28;19932;-68
2023/05/02 02:36:34;;;;;;;;;;;10.30;99.90;;;;;;5017087;28;19975;-68
2023/05/02 02:39:11;;;;;;;;;;;10.30;99.90;;;;;;5025667;28;19929;-67
2023/05/02 02:41:41;;;;;;;;;;;10.30;99.90;;;;;;5036674;28;19925;-67
2023/05/02 02:44:14;;;;;;;;;;;10.30;99.90;;;;;;5036001;28;19932;-67
2023/05/02 02:46:47;;;;;;;;;;;10.30;99.90;;;;;;5030259;28;19931;-68
2023/05/02 02:49:18;;;;;;;;;;;10.30;99.90;;;;;;5025815;28;19972;-68
2023/05/02 02:51:49;;;;;;;;;;;10.20;99.90;;;;;;5025664;28;19924;-68
2023/05/02 02:54:22;;;;;;;;;;;10.20;99.90;;;;;;5030876;28;19929;-69
2023/05/02 02:56:50;;;;;;;;;;;10.20;99.90;;;;;;5021408;28;20590;-69
2023/05/02 02:59:20;;;;;;;;;;;10.30;99.90;;;;;;5028113;28;20048;-68
2023/05/02 03:01:53;;;;;;;;;;;10.30;99.90;;;;;;5026209;28;19924;-69
2023/05/02 03:04:21;;;;;;;;;;;10.30;99.90;;;;;;5036425;28;20434;-68
2023/05/02 03:06:48;;;;;;;;;;;10.30;99.90;;;;;;5037167;28;19931;-68
2023/05/02 03:09:17;;;;;;;;;;;;;;;;;;5048481;28;20327;-67
2023/05/02 03:11:45;;;;;;;;;;;10.30;99.90;;;;;;5032453;28;20408;-67
2023/05/02 03:14:13;;;;;;;;;;;;;;;;;;5020096;28;20443;-68
2023/05/02 03:16:41;;;;;;;;;;;10.30;99.90;;;;;;5023002;28;19935;-67
2023/05/02 03:19:12;;;;;;;;;;;10.30;99.90;;;;;;5025713;28;19961;-67
2023/05/02 03:21:40;;;;;;;;;;;10.30;99.90;;;;;;5022376;28;19926;-67
2023/05/02 03:24:14;;;;;;;;;;;10.30;99.90;;;;;;5022550;28;19929;-67
2023/05/02 03:26:41;;;;;;;;;;;10.30;99.90;;;;;;5032532;28;19959;-67
2023/05/02 03:29:12;;;;;;;;;;;10.30;99.90;;;;;;5052423;28;19925;-67
2023/05/02 03:31:41;;;;;;;;;;;10.40;99.90;;;;;;5046962;28;19924;-67
2023/05/02 03:34:08;;;;;;;;;;;10.30;99.90;;;;;;5036672;28;19932;-68
2023/05/02 03:36:37;;;;;;;;;;;10.40;99.90;;;;;;5025290;28;19929;-68
2023/05/02 03:39:04;;;;;;;;;;;10.40;99.90;;;;;;5026438;28;20415;-68
2023/05/02 03:41:30;;;;;;;;;;;10.40;99.90;;;;;;5030369;28;19936;-69
2023/05/02 03:44:04;;;;;;;;;;;10.30;99.90;;;;;;5026393;28;20023;-68
2023/05/02 03:46:33;;;;;;;;;;;10.40;99.90;;;;;;5029185;28;19936;-68
2023/05/02 03:49:02;;;;;;;;;;;10.40;99.90;;;;;;5021931;28;19925;-69
2023/05/02 03:51:29;;;;;;;;;;;10.40;99.90;;;;;;5035250;28;19956;-68
2023/05/02 03:53:57;;;;;;;;;;;10.40;99.90;;;;;;5023919;28;19965;-69
2023/05/02 03:56:24;;;;;;;;;;;10.40;99.90;;;;;;5032187;28;19931;-69
2023/05/02 03:59:01;;;;;;;;;;;10.40;99.90;;;;;;5031132;28;19928;-68
2023/05/02 04:01:28;;;;;;;;;;;;;;;;;;5035203;28;20032;-68
2023/05/02 04:03:58;;;;;;;;;;;10.50;99.90;;;;;;5030281;28;19925;-68
2023/05/02 04:06:27;;;;;;;;;;;10.50;99.90;;;;;;5028381;28;20015;-68
2023/05/02 04:09:00;;;;;;;;;;;10.50;99.90;;;;;;5030677;28;19925;-68
2023/05/02 04:11:33;;;;;;;;;;;10.50;99.90;;;;;;5028973;28;19925;-68
2023/05/02 04:14:01;;;;;;;;;;;10.50;99.90;;;;;;5039591;28;19928;-68
2023/05/02 04:16:28;;;;;;;;;;;10.50;99.90;;;;;;5029216;28;19925;-67
2023/05/02 04:18:56;;;;;;;;;;;10.50;99.90;;;;;;5027581;28;19932;-68
2023/05/02 04:21:25;;;;;;;;;;;10.40;99.90;;;;;;5033364;28;19928;-68
2023/05/02 04:23:52;;;;;;;;;;;8.40;99.90;;;;;;5030786;28;20028;-69
2023/05/02 04:26:20;;;;;;;;;;;10.80;99.90;;;;;;5031942;28;20032;-68
2023/05/02 04:28:54;;;;;;;;;;;10.50;99.90;;;;;;5022650;28;19968;-68
2023/05/02 04:31:21;;;;;;;;;;;10.50;99.90;;;;;;5019421;28;19925;-69
2023/05/02 04:33:48;;;;;;;;;;;10.50;99.90;;;;;;5020802;28;20000;-68
2023/05/02 04:36:18;;;;;;;;;;;10.50;99.90;;;;;;5025176;28;19971;-68
2023/05/02 04:38:48;;;;;;;;;;;10.50;99.90;;;;;;5047449;28;20300;-68
2023/05/02 04:41:17;;;;;;;;;;;10.50;99.90;;;;;;5032561;28;19932;-68
2023/05/02 04:43:49;;;;;;;;;;;11.50;99.90;;;;;;5026459;28;19947;-69
2023/05/02 04:46:17;;;;;;;;;;;10.50;99.90;;;;;;5030151;28;19924;-68
2023/05/02 04:48:44;;;;;;;;;;;10.60;99.90;;;;;;5029375;28;19925;-68
2023/05/02 04:51:10;;;;;;;;;;;10.60;99.90;;;;;;5031763;28;19925;-68
2023/05/02 04:53:37;;;;;;;;;;;10.50;99.90;;;;;;5017410;28;19979;-68
2023/05/02 04:56:06;;;;;;;;;;;10.70;99.90;;;;;;5016053;28;19976;-67
2023/05/02 04:58:36;;;;;;;;;;;10.40;99.90;;;;;;5021027;28;19963;-69
2023/05/02 05:01:06;;;;;;;;;;;10.40;99.90;;;;;;5046001;28;19926;-67
2023/05/02 05:03:33;;;;;;;;;;;10.30;99.90;;;;;;5034654;28;19933;-68
2023/05/02 05:06:01;;;;;;;;;;;10.30;99.90;;;;;;5026000;28;19957;-67
2023/05/02 05:08:28;;;;;;;;;;;10.20;99.90;;;;;;5033191;28;19928;-68
2023/05/02 05:10:56;;;;;;;;;;;10.30;99.90;;;;;;5028983;28;20337;-68
2023/05/02 05:13:25;;;;;;;;;;;10.30;99.90;;;;;;5034729;28;19924;-67
2023/05/02 05:15:53;;;;;;;;;;;10.20;99.90;;;;;;5029607;28;19924;-67
2023/05/02 05:18:23;;;;;;;;;;;10.30;99.90;;;;;;5030660;28;20439;-68
2023/05/02 05:20:50;;;;;;;;;;;10.30;99.90;;;;;;5024715;28;19925;-66
2023/05/02 05:23:17;;;;;;;;;;;;;;;;;;5030968;28;19924;-68
2023/05/02 05:25:44;;;;;;;;;;;10.30;99.90;;;;;;5023836;28;19959;-67
2023/05/02 05:28:12;;;;;;;;;;;;;;;;;;5017011;28;20411;-68
2023/05/02 05:30:40;;;;;;;;;;;10.30;99.90;;;;;;5023960;28;19931;-67
2023/05/02 05:33:10;;;;;;;;;;;10.20;99.90;;;;;;5027446;28;19924;-68
2023/05/02 05:35:38;;;;;;;;;;;10.20;99.90;;;;;;5020702;28;19925;-69
2023/05/02 05:38:05;;;;;;;;;;;10.90;99.90;;;;;;5024178;28;19932;-69
2023/05/02 05:40:35;;;;;;;;;;;;;;;;;;5013179;28;20397;-68
2023/05/02 05:43:02;;;;;;;;;;;10.20;99.90;;;;;;5026627;28;19986;-69
2023/05/02 05:45:34;;;;;;;;;;;10.40;99.90;;;;;;5028788;28;19925;-72
2023/05/02 05:48:02;;;;;;;;;;;10.60;99.90;;;;;;5024153;28;19924;-71
2023/05/02 05:50:33;;;;;;;;;;;10.20;99.90;;;;;;5019248;28;19932;-68
2023/05/02 05:53:00;;;;;;;;;;;10.20;99.90;;;;;;5027997;28;19924;-70
2023/05/02 05:55:27;;;;;;;;;;;10.20;99.90;;;;;;5021097;28;20039;-71
2023/05/02 05:57:54;;;;;;;;;;;10.20;99.90;;;;;;5027387;28;19960;-70
2023/05/02 06:00:21;;;;;;;;;;;10.20;99.90;;;;;;5021598;28;20347;-70
2023/05/02 06:02:51;;;;;;;;;;;10.20;99.90;;;;;;5021176;28;19968;-70
2023/05/02 06:05:26;;;;;;;;;;;10.40;99.90;;;;;;5025119;28;20308;-70
2023/05/02 06:07:53;;;;;;;;;;;10.50;99.90;;;;;;5034942;28;19937;-70
2023/05/02 06:10:20;;;;;;;;;;;10.40;99.90;;;;;;5016320;28;20385;-70
2023/05/02 06:12:47;;;;;;;;;;;11.20;99.90;;;;;;5022164;28;19925;-70
2023/05/02 06:15:15;;;;;;;;;;;10.40;99.90;;;;;;5025224;28;19925;-70
2023/05/02 06:17:42;;;;;;;;;;;9.30;99.90;;;;;;5022509;28;19926;-70
2023/05/02 06:20:09;;;;;;;;;;;10.60;99.90;;;;;;5030306;28;19955;-70
2023/05/02 06:22:38;;;;;;;;;;;10.40;99.90;;;;;;5021814;28;20463;-70
2023/05/02 06:25:06;;;;;;;;;;;10.50;99.90;;;;;;5017801;28;20014;-69
2023/05/02 06:27:32;;;;;;;;;;;10.50;99.90;;;;;;5014124;28;19998;-70
2023/05/02 06:30:00;;;;;;;;;;;;;;;;;;5019238;28;19968;-69
2023/05/02 06:32:29;;;;;;;;;;;10.40;99.90;;;;;;5022613;28;20450;-70
2023/05/02 06:34:56;;;;;;;;;;;10.60;99.90;;;;;;5017286;28;19929;-70
2023/05/02 06:37:23;;;;;;;;;;;;;;;;;;5025425;28;19961;-70
2023/05/02 06:39:52;;;;;;;;;;;10.60;99.90;;;;;;5025370;28;20016;-69
2023/05/02 06:42:19;;;;;;;;;;;10.60;99.90;;;;;;5022434;28;19925;-68
2023/05/02 06:44:46;;;;;;;;;;;10.60;99.90;;;;;;5025204;28;19931;-69
2023/05/02 06:47:12;;;;;;;;;;;10.90;99.90;;;;;;5022782;28;19925;-68
2023/05/02 06:49:39;;;;;;;;;;;10.60;99.90;;;;;;5019147;28;19925;-69
2023/05/02 06:52:06;;;;;;;;;;;;;;;;;;5028808;28;19932;-69
2023/05/02 06:54:33;;;;;;;;;;;10.80;99.90;;;;;;5023010;28;19925;-69
2023/05/02 06:57:02;;;;;;;;;;;10.70;99.90;;;;;;5020868;28;20343;-69
2023/05/02 06:59:28;;;;;;;;;;;10.70;99.90;;;;;;5021862;28;19925;-69
2023/05/02 07:01:55;;;;;;;;;;;10.70;99.90;;;;;;5023315;28;20383;-69
2023/05/02 07:04:22;;;;;;;;;;;10.80;99.90;;;;;;5021928;28;19979;-68
2023/05/02 07:06:49;;;;;;;;;;;10.90;99.90;;;;;;5011653;28;19937;-69
2023/05/02 07:09:16;;;;;;;;;;;10.90;99.90;;;;;;5019312;28;20396;-68
2023/05/02 07:11:43;;;;;;;;;;;10.90;99.90;;;;;;5013283;28;19925;-68
2023/05/02 07:14:11;;;;;;;;;;;10.90;99.90;;;;;;5026307;28;20403;-68
2023/05/02 07:16:38;;;;;;;;;;;10.80;99.90;;;;;;5014795;28;20400;-69
2023/05/02 07:19:05;;;;;;;;;;;10.80;99.90;;;;;;5021780;28;19925;-70
2023/05/02 07:21:32;;;;;;;;;;;10.60;99.90;;;;;;5020946;28;20364;-69
2023/05/02 07:23:59;;;;;;;;;;;10.50;99.90;;;;;;5023849;28;19925;-69
2023/05/02 07:26:26;;;;;;;;;;;10.50;99.90;;;;;;5024880;28;20307;-69
2023/05/02 07:28:53;;;;;;;;;;;10.60;99.90;;;;;;5026307;28;19931;-70
2023/05/02 07:31:21;;;;;;;;;;;10.70;99.90;;;;;;5020192;28;19933;-70
2023/05/02 07:33:48;;;;;;;;;;;10.70;99.90;;;;;;5022554;28;19925;-70
2023/05/02 07:36:15;;;;;;;;;;;10.80;99.90;;;;;;5018850;28;19997;-69
2023/05/02 07:38:42;;;;;;;;;;;;;;;;;;5022189;28;19956;-69
2023/05/02 07:41:08;;;;;;;;;;;11.10;99.90;;;;;;5023841;28;19925;-69
2023/05/02 07:43:35;;;;;;;;;;;11.30;99.90;;;;;;5030878;28;19933;-69
2023/05/02 07:46:04;;;;;;;;;;;11.50;99.90;;;;;;5028829;28;20335;-69
2023/05/02 07:48:32;;;;;;;;;;;11.70;99.90;;;;;;5028504;28;19925;-69
2023/05/02 07:51:05;;;;;;;;;;;11.80;99.90;;;;;;5032701;28;20011;-70
2023/05/02 07:53:32;;;;;;;;;;;11.80;99.90;;;;;;5029552;28;20368;-70
2023/05/02 07:55:59;;;;;;;;;;;11.90;99.90;;;;;;5024664;28;19924;-69
2023/05/02 07:58:26;;;;;;;;;;;13.70;99.90;;;;;;5030325;28;19940;-69
2023/05/02 08:00:52;;;;;;;;;;;12.10;99.90;;;;;;5032311;28;19928;-70
2023/05/02 08:03:19;;;;;;;;;;;12.30;99.90;;;;;;5033209;28;20293;-70
2023/05/02 08:05:47;;;;;;;;;;;12.30;99.90;;;;;;5016101;28;20454;-70
2023/05/02 08:08:14;;;;;;;;;;;13.30;99.90;;;;;;5029132;28;20388;-70
2023/05/02 08:10:41;;;;;;;;;;;12.30;99.90;;;;;;5042104;28;20028;-70
2023/05/02 08:13:08;;;;;;;;;;;12.60;99.90;;;;;;5025533;28;19979;-70
2023/05/02 08:15:35;;;;;;;;;;;12.80;99.90;;;;;;5032350;28;19994;-72
2023/05/02 08:18:01;;;;;;;;;;;12.90;99.90;;;;;;5028694;28;19937;-70
2023/05/02 08:20:28;;;;;;;;;;;13.00;99.90;;;;;;5019567;28;19924;-70
2023/05/02 08:22:57;;;;;;;;;;;13.10;99.90;;;;;;5044307;28;19933;-70
2023/05/02 08:25:23;;;;;;;;;;;13.20;99.90;;;;;;5022998;28;19924;-70
2023/05/02 08:27:50;;;;;;;;;;;13.10;99.90;;;;;;5031861;28;19932;-69
2023/05/02 08:30:17;;;;;;;;;;;13.20;99.90;;;;;;5026467;28;19925;-70
2023/05/02 08:32:44;;;;;;;;;;;;;;;;;;5032180;28;19978;-70
2023/05/02 08:35:11;;;;;;;;;;;12.90;99.90;;;;;;5028364;28;20424;-69
2023/05/02 08:37:38;;;;;;;;;;;12.70;99.90;;;;;;5033515;28;19928;-70
2023/05/02 08:40:11;;;;;;;;;;;12.50;99.90;;;;;;5018866;28;20339;-71
2023/05/02 08:42:41;;;;;;;;;;;12.30;99.90;;;;;;5026350;28;19933;-70
2023/05/02 08:45:08;;;;;;;;;;;12.30;99.90;;;;;;5023558;28;19935;-70
2023/05/02 08:47:36;;;;;;;;;;;12.10;99.90;;;;;;5029716;28;19933;-70
2023/05/02 08:50:03;;;;;;;;;;;12.10;99.90;;;;;;5027616;28;19925;-72
2023/05/02 08:52:32;;;;;;;;;;;12.00;99.90;;;;;;5020402;28;19979;-70
2023/05/02 08:55:00;;;;;;;;;;;12.10;99.90;;;;;;5038870;28;19931;-69
2023/05/02 08:57:28;;;;;;;;;;;12.20;99.90;;;;;;5025213;28;19932;-70
2023/05/02 08:59:55;;;;;;;;;;;12.50;99.90;;;;;;5027872;28;19975;-70
2023/05/02 09:02:26;;;;;;;;;;;12.80;99.90;;;;;;5029595;28;20046;-70
2023/05/02 09:04:54;;;;;;;;;;;13.00;99.90;;;;;;5028285;28;19940;-70
2023/05/02 09:07:22;;;;;;;;;;;13.20;99.90;;;;;;5019931;28;19925;-70
2023/05/02 09:09:49;;;;;;;;;;;13.30;99.90;;;;;;5031062;28;19925;-71
2023/05/02 09:12:16;;;;;;;;;;;13.40;99.90;;;;;;5022882;28;19925;-70
2023/05/02 09:14:44;;;;;;;;;;;13.20;99.90;;;;;;5026284;28;19953;-70
2023/05/02 09:17:11;;;;;;;;;;;;;;;;;;5044522;28;20372;-69
2023/05/02 09:19:38;;;;;;;;;;;13.10;99.90;;;;;;5022076;28;20388;-70
2023/05/02 09:22:05;;;;;;;;;;;13.00;99.90;;;;;;5025737;28;20339;-70
2023/05/02 09:24:32;;;;;;;;;;;12.80;99.90;;;;;;5022373;28;19937;-72
2023/05/02 09:26:59;;;;;;;;;;;13.00;99.90;;;;;;5026422;28;19925;-70
2023/05/02 09:29:26;;;;;;;;;;;;;;;;;;5023444;28;19925;-69
2023/05/02 09:31:55;;;;;;;;;;;13.10;99.90;;;;;;5015906;28;19932;-69
2023/05/02 09:34:22;;;;;;;;;;;13.20;99.90;;;;;;5032235;28;20036;-70
2023/05/02 09:36:50;;;;;;;;;;;13.20;99.90;;;;;;5027180;28;19982;-68
2023/05/02 09:39:18;;;;;;;;;;;13.40;99.90;;;;;;5030009;28;20055;-69
2023/05/02 09:41:46;;;;;;;;;;;13.60;99.90;;;;;;5032003;28;19950;-69
2023/05/02 09:44:14;;;;;;;;;;;13.80;99.90;;;;;;5024139;28;20035;-68
2023/05/02 09:46:41;;;;;;;;;;;13.70;99.90;;;;;;5026322;28;19925;-69
2023/05/02 09:49:10;;;;;;;;;;;12.90;99.90;;;;;;5030606;28;20043;-69
2023/05/02 09:51:36;;;;;;;;;;;13.10;99.90;;;;;;5041414;28;19925;-69
2023/05/02 09:54:03;;;;;;;;;;;12.90;99.90;;;;;;5026503;28;19925;-68
2023/05/02 09:56:30;;;;;;;;;;;12.70;99.90;;;;;;5031781;28;19972;-69
2023/05/02 09:59:12;;;;;;;;;;;12.50;99.90;;;;;;5035220;28;20388;-69
2023/05/02 10:01:39;;;;;;;;;;;;;;;;;;5041963;28;20407;-69
2023/05/02 10:04:07;;;;;;;;;;;12.30;99.90;;;;;;5023444;28;19929;-70
2023/05/02 10:06:35;;;;;;;;;;;12.20;99.90;;;;;;5043517;28;19924;-69
2023/05/02 10:09:02;;;;;;;;;;;12.10;99.90;;;;;;5029386;28;19924;-70
2023/05/02 10:11:30;;;;;;;;;;;12.00;99.90;;;;;;5020417;28;19931;-69
2023/05/02 10:13:57;;;;;;;;;;;12.10;99.90;;;;;;5032172;28;19925;-70
2023/05/02 10:16:25;;;;;;;;;;;;;;;;;;5026661;28;19932;-69
2023/05/02 10:18:54;;;;;;;;;;;12.30;99.90;;;;;;5029338;28;19940;-69
2023/05/02 10:21:26;;;;;;;;;;;12.50;99.90;;;;;;5022129;28;20309;-69
2023/05/02 10:23:54;;;;;;;;;;;12.30;99.90;;;;;;5027777;28;19935;-69
2023/05/02 10:26:22;;;;;;;;;;;12.30;99.90;;;;;;5025556;28;19928;-70
2023/05/02 10:28:49;;;;;;;;;;;12.20;99.90;;;;;;5024462;28;19929;-69
2023/05/02 10:31:16;;;;;;;;;;;;;;;;;;5025563;28;19935;-70
2023/05/02 10:33:43;;;;;;;;;;;12.10;99.90;;;;;;5021532;28;19925;-68
2023/05/02 10:36:12;;;;;;;;;;;12.10;99.90;;;;;;5018742;28;19932;-69
2023/05/02 10:38:39;;;;;;;;;;;12.20;99.90;;;;;;5038507;28;19961;-70
2023/05/02 10:41:09;;;;;;;;;;;12.30;99.90;;;;;;5024966;28;19995;-69
2023/05/02 10:43:36;;;;;;;;;;;;;;;;;;5021152;28;19929;-69
2023/05/02 10:46:03;;;;;;;;;;;12.10;99.90;;;;;;5026383;28;20408;-69
2023/05/02 10:48:30;;;;;;;;;;;12.20;99.90;;;;;;5025353;28;19925;-69
2023/05/02 10:50:57;;;;;;;;;;;12.10;99.90;;;;;;5029402;28;20334;-69
2023/05/02 10:53:25;;;;;;;;;;;12.10;99.90;;;;;;5037043;28;19929;-69
2023/05/02 10:56:10;;;;;;;;;;;12.20;99.90;;;;;;5024191;28;20354;-69
2023/05/02 10:58:37;;;;;;;;;;;12.40;99.90;;;;;;5013126;28;19972;-69
2023/05/02 11:01:23;;;;;;;;;;;12.90;99.90;;;;;;5025603;28;19924;-69
2023/05/02 11:03:53;;;;;;;;;;;13.30;99.90;;;;;;5027428;28;19985;-67
2023/05/02 11:06:20;;;;;;;;;;;13.70;99.90;;;;;;5024068;28;19928;-69
2023/05/02 11:08:47;;;;;;;;;;;;;;;;;;5026868;28;19925;-70
2023/05/02 11:11:32;;;;;;;;;;;14.80;99.90;;;;;;5022683;28;20369;-69
2023/05/02 11:13:59;;;;;;;;;;;;;;;;;;5033499;28;19925;-69
2023/05/02 11:16:48;;;;;;;;;;;15.60;99.90;;;;;;5029635;28;20016;-69
2023/05/02 11:19:14;;;;;;;;;;;15.90;99.90;;;;;;5035353;28;20019;-69
2023/05/02 11:21:41;;;;;;;;;;;15.80;99.90;;;;;;5030464;28;20019;-69
2023/05/02 11:24:22;;;;;;;;;;;15.90;99.90;;;;;;5047988;28;20314;-69
2023/05/02 11:26:49;;;;;;;;;;;;;;;;;;5010104;28;20381;-69
2023/05/02 11:29:44;;;;;;;;;;;16.80;99.90;;;;;;5028323;28;19964;-69
2023/05/02 11:32:12;;;;;;;;;;;16.60;99.90;;;;;;5025000;28;19924;-69
2023/05/02 11:34:39;;;;;;;;;;;;;;;;;;5032653;28;19925;-70
2023/05/02 11:37:07;;;;;;;;;;;;;;;;;;5032470;28;19924;-70
2023/05/02 11:39:33;;;;;;;;;;;17.90;99.90;;;;;;5024221;28;20418;-69
2023/05/02 11:42:00;;;;;;;;;;;18.80;99.90;;;;;;5029887;28;20347;-69
2023/05/02 11:44:27;;;;;;;;;;;19.20;99.90;;;;;;5030672;28;19936;-70
2023/05/02 11:46:54;;;;;;;;;;;;;;;;;;5028112;28;19925;-69
2023/05/02 11:49:21;;;;;;;;;;;;;;;;;;5029789;28;20400;-68
2023/05/02 11:51:50;;;;;;;;;;;17.10;99.90;;;;;;5029075;28;19925;-69
2023/05/02 11:54:18;;;;;;;;;;;16.90;99.90;;;;;;5034562;28;19924;-69
2023/05/02 11:56:45;;;;;;;;;;;16.60;99.90;;;;;;5026943;28;20463;-71
2023/05/02 11:59:12;;;;;;;;;;;16.40;99.90;;;;;;5023400;28;19931;-69
2023/05/02 12:01:47;;;;;;;;;;;16.20;99.90;;;;;;5030054;28;20004;-69
2023/05/02 12:04:14;;;;;;;;;;;16.40;99.90;;;;;;5026350;28;20489;-71
2023/05/02 12:06:54;;;;;;;;;;;16.70;99.90;;;;;;5023545;28;19932;-69
2023/05/02 12:09:22;;;;;;;;;;;16.60;99.90;;;;;;5024382;28;19971;-69
2023/05/02 12:11:51;;;;;;;;;;;16.70;99.90;;;;;;5028737;28;19932;-70
2023/05/02 12:14:26;;;;;;;;;;;17.20;99.90;;;;;;5027575;28;19925;-69
2023/05/02 12:16:52;;;;;;;;;;;17.20;99.90;;;;;;5034586;28;19925;-69
2023/05/02 12:19:20;;;;;;;;;;;17.10;99.90;;;;;;5031187;28;19925;-70
2023/05/02 12:21:47;;;;;;;;;;;17.10;99.90;;;;;;5027889;28;19925;-69
2023/05/02 12:24:14;;;;;;;;;;;17.10;99.90;;;;;;5023710;28;20411;-69
2023/05/02 12:26:42;;;;;;;;;;;17.60;99.90;;;;;;5024400;28;19925;-69
2023/05/02 12:29:09;;;;;;;;;;;18.20;99.90;;;;;;5028619;28;20380;-70
2023/05/02 12:31:36;;;;;;;;;;;18.80;99.90;;;;;;5028062;28;19979;-68
2023/05/02 12:34:03;;;;;;;;;;;19.10;99.90;;;;;;5018015;28;19925;-72
2023/05/02 12:36:32;;;;;;;;;;;;;;;;;;5019589;28;19953;-70
2023/05/02 12:39:00;;;;;;;;;;;19.30;99.90;;;;;;5032547;28;19925;-70
2023/05/02 12:41:27;;;;;;;;;;;;;;;;;;5016318;28;19968;-70
2023/05/02 12:43:57;;;;;;;;;;;18.40;99.90;;;;;;5037755;28;19964;-71
2023/05/02 12:46:24;;;;;;;;;;;18.00;99.90;;;;;;5014997;28;19932;-70
2023/05/02 12:49:01;;;;;;;;;;;17.60;99.90;;;;;;5019995;28;20343;-70
2023/05/02 12:51:30;;;;;;;;;;;17.40;99.90;;;;;;5029730;28;19964;-70
2023/05/02 12:53:57;;;;;;;;;;;17.60;99.90;;;;;;5034873;28;19924;-70
2023/05/02 12:56:26;;;;;;;;;;;18.90;99.90;;;;;;5018612;28;19924;-71
2023/05/02 12:58:53;;;;;;;;;;;19.40;99.90;;;;;;5040171;28;19960;-71
2023/05/02 13:01:21;;;;;;;;;;;19.00;99.90;;;;;;5035871;28;20359;-71
2023/05/02 13:03:50;;;;;;;;;;;19.20;99.90;;;;;;5040801;28;19979;-70
2023/05/02 13:06:17;;;;;;;;;;;18.40;99.90;;;;;;5020927;28;19925;-70
2023/05/02 13:08:44;;;;;;;;;;;;;;;;;;5022816;28;19974;-70
2023/05/02 13:11:11;;;;;;;;;;;;;;;;;;5025934;28;19928;-69
2023/05/02 13:13:38;;;;;;;;;;;;;;;;;;5023245;28;19924;-69
2023/05/02 13:16:06;;;;;;;;;;;;;;;;;;5029105;28;19925;-72
2023/05/02 13:18:34;;;;;;;;;;;18.90;99.90;;;;;;5025750;28;19929;-70
2023/05/02 13:21:03;;;;;;;;;;;19.60;99.90;;;;;;5012217;28;20374;-69
2023/05/02 13:23:30;;;;;;;;;;;19.30;99.90;;;;;;5039116;28;20335;-70
2023/05/02 13:25:57;;;;;;;;;;;18.80;99.90;;;;;;5027681;28;20462;-69
2023/05/02 13:28:24;;;;;;;;;;;;;;;;;;5025661;28;19925;-69
2023/05/02 13:30:51;;;;;;;;;;;18.70;99.90;;;;;;5047586;28;19925;-69
2023/05/02 13:33:18;;;;;;;;;;;;;;;;;;5027140;28;20379;-69
2023/05/02 13:35:46;;;;;;;;;;;17.20;99.90;;;;;;5031930;28;19925;-69
2023/05/02 13:38:13;;;;;;;;;;;17.20;99.90;;;;;;5026448;28;20443;-69
2023/05/02 13:40:40;;;;;;;;;;;18.40;99.90;;;;;;5020336;28;19925;-69
2023/05/02 13:43:06;;;;;;;;;;;19.00;99.90;;;;;;5034297;28;19928;-69
2023/05/02 13:45:34;;;;;;;;;;;19.30;99.90;;;;;;5031348;28;19986;-69
2023/05/02 13:48:01;;;;;;;;;;;19.30;99.90;;;;;;5026518;28;19931;-69
2023/05/02 13:50:27;;;;;;;;;;;18.80;99.90;;;;;;5027692;28;19925;-70
2023/05/02 13:52:56;;;;;;;;;;;19.30;99.90;;;;;;5034380;28;19928;-69
2023/05/02 13:55:23;;;;;;;;;;;;;;;;;;5032448;28;19924;-69
2023/05/02 13:57:50;;;;;;;;;;;;;;;;;;5027802;28;19960;-69
2023/05/02 14:00:17;;;;;;;;;;;;;;;;;;5024663;28;19925;-69
2023/05/02 14:02:46;;;;;;;;;;;;;;;;;;5034203;28;20356;-69
2023/05/02 14:05:13;;;;;;;;;;;;;;;;;;5042676;28;19924;-70
2023/05/02 14:07:41;;;;;;;;;;;;;;;;;;5026238;28;19924;-69
2023/05/02 14:10:08;;;;;;;;;;;;;;;;;;5018848;28;19925;-69
2023/05/02 14:12:36;;;;;;;;;;;20.30;99.90;;;;;;5018547;28;19929;-69
2023/05/02 14:15:03;;;;;;;;;;;;;;;;;;5012368;28;19932;-69
2023/05/02 14:17:30;;;;;;;;;;;22.00;99.90;;;;;;5022797;28;19929;-69
2023/05/02 14:19:57;;;;;;;;;;;21.80;99.90;;;;;;5021462;28;20400;-75
2023/05/02 14:22:24;;;;;;;;;;;20.40;99.90;;;;;;5019534;28;19936;-69
2023/05/02 14:24:50;;;;;;;;;;;20.10;99.90;;;;;;5022194;28;20338;-74
2023/05/02 14:27:17;;;;;;;;;;;20.10;99.90;;;;;;5021033;28;19925;-74
2023/05/02 14:29:46;;;;;;;;;;;20.40;99.90;;;;;;5022103;28;19982;-70
2023/05/02 14:32:13;;;;;;;;;;;20.10;99.90;;;;;;5018119;28;19940;-77
2023/05/02 14:34:40;;;;;;;;;;;20.50;99.90;;;;;;5018894;28;20439;-76
2023/05/02 14:37:07;;;;;;;;;;;21.60;99.90;;;;;;5026143;28;19925;-69
2023/05/02 14:39:34;;;;;;;;;;;21.30;99.90;;;;;;5029700;28;19925;-70